Time;durP1;ratioP1;P1;durP2;ratioP2;P2;SDS_P1;SDS_P2;PMS_P1;PMS_P2;Temp;Humidity;BMP_temperature;BMP_pressure;BME280_temperature;BME280_humidity;BME280_pressure;Samples;Min_cycle;Max_cycle;Signal;HPM_P1;HPM_P2
2023/05/18 00:02:02;;;;;;;15.20;7.93;;;;;;;13.10;87.21;98880.56;4907205;29;20086;-89
2023/05/18 00:04:28;;;;;;;11.32;7.72;;;;;;;13.10;86.96;98884.06;4891601;29;20060;-89
2023/05/18 00:06:57;;;;;;;9.45;7.28;;;;;;;13.07;86.50;98873.03;4891072;29;20035;-91
2023/05/18 00:09:25;;;;;;;11.77;6.90;;;;;;;13.18;86.01;98885.31;4907975;29;20406;-91
2023/05/18 00:11:52;;;;;;;8.48;6.13;;;;;;;13.21;85.47;98876.56;4891384;29;20046;-92
2023/05/18 00:14:18;;;;;;;8.68;5.72;;;;;;;13.15;84.70;98875.06;4891198;29;20050;-91
2023/05/18 00:16:43;;;;;;;10.68;6.60;;;;;;;13.33;84.96;98895.06;4890914;29;20035;-91
2023/05/18 00:19:09;;;;;;;8.20;6.40;;;;;;;13.31;86.30;98881.84;4922498;29;20475;-91
2023/05/18 00:21:35;;;;;;;9.38;6.57;;;;;;;13.36;86.23;98878.22;4906487;29;20028;-90
2023/05/18 00:24:00;;;;;;;14.43;7.55;;;;;;;13.21;86.65;98878.50;4891187;29;20018;-91
2023/05/18 00:26:26;;;;;;;10.35;7.03;;;;;;;13.29;86.87;98902.16;4891047;29;20063;-91
2023/05/18 00:28:51;;;;;;;10.80;6.53;;;;;;;13.17;86.74;98877.47;4922276;29;20471;-91
2023/05/18 00:31:17;;;;;;;7.88;6.40;;;;;;;13.26;85.71;98883.78;4890859;29;20470;-91
2023/05/18 00:33:44;;;;;;;9.50;6.55;;;;;;;13.23;85.54;98887.91;4906581;29;20012;-90
2023/05/18 00:36:10;;;;;;;8.02;6.72;;;;;;;13.29;86.09;98889.44;4923285;29;20039;-90
2023/05/18 00:38:35;;;;;;;9.75;6.72;;;;;;;13.20;85.97;98875.00;4890318;29;20063;-90
2023/05/18 00:41:01;;;;;;;9.18;6.53;;;;;;;13.21;86.36;98889.31;4906556;29;20118;-90
2023/05/18 00:43:26;;;;;;;10.07;6.97;;;;;;;12.94;87.12;98870.00;4891075;29;20035;-90
2023/05/18 00:45:52;;;;;;;11.80;7.57;;;;;;;13.03;86.32;98874.75;4906642;29;20035;-90
2023/05/18 00:48:18;;;;;;;9.38;6.95;;;;;;;13.07;86.86;98895.50;4921739;29;20028;-90
2023/05/18 00:50:43;;;;;;;8.80;6.45;;;;;;;13.11;85.91;98891.09;4922236;29;20534;-90
2023/05/18 00:53:12;;;;;;;8.93;6.97;;;;;;;13.11;85.10;98874.88;4890887;29;20106;-90
2023/05/18 00:55:37;;;;;;;8.88;6.22;;;;;;;13.25;84.81;98884.91;4891221;29;20406;-89
2023/05/18 00:58:04;;;;;;;10.20;7.13;;;;;;;13.30;84.53;98882.94;4921627;29;20023;-89
2023/05/18 01:00:29;;;;;;;10.20;6.13;;;;;;;13.23;85.24;98879.78;4905129;29;20024;-89
2023/05/18 01:02:55;;;;;;;9.20;6.50;;;;;;;13.29;85.55;98891.34;4906162;29;20055;-89
2023/05/18 01:05:21;;;;;;;13.90;6.85;;;;;;;13.30;84.99;98882.94;4905717;29;20032;-89
2023/05/18 01:07:47;;;;;;;9.57;6.55;;;;;;;13.28;85.46;98895.09;4905726;29;20039;-89
2023/05/18 01:10:15;;;;;;;10.43;6.25;;;;;;;13.24;85.14;98892.22;4906029;29;20086;-88
2023/05/18 01:12:49;;;;;;;9.57;6.90;;;;;;;13.29;85.01;98892.16;4890296;29;20118;-88
2023/05/18 01:15:21;;;;;;;11.13;6.80;;;;;;;13.27;86.10;98904.34;4891092;29;20055;-88
2023/05/18 01:18:14;;;;;;;12.45;7.32;;;;;;;13.32;86.29;98912.38;4906148;29;20028;-89
2023/05/18 01:20:44;;;;;;;9.95;6.57;;;;;;;13.31;86.42;98908.09;4921142;29;20501;-91
2023/05/18 01:23:28;;;;;;;8.90;6.53;;;;;;;13.37;86.19;98904.19;4904991;29;20032;-89
2023/05/18 01:25:53;;;;;;;10.00;6.55;;;;;;;13.50;84.79;98905.28;4938079;29;20061;-89
2023/05/18 01:28:25;;;;;;;9.82;6.35;;;;;;;13.20;85.74;98891.22;4938024;29;20474;-88
2023/05/18 01:30:51;;;;;;;8.13;6.03;;;;;;;13.18;86.10;98906.09;4890759;29;20087;-89
2023/05/18 01:33:16;;;;;;;12.70;7.05;;;;;;;13.00;86.73;98883.44;4890210;29;20019;-89
2023/05/18 01:35:46;;;;;;;8.02;6.10;;;;;;;13.00;86.15;98891.56;4889767;29;20517;-89
2023/05/18 01:38:21;;;;;;;8.27;6.60;;;;;;;13.13;86.53;98915.09;4890764;29;20023;-89
2023/05/18 01:41:10;;;;;;;10.32;6.72;;;;;;;13.09;86.55;98914.91;4905723;29;20122;-89
2023/05/18 01:43:36;;;;;;;9.48;5.88;;;;;;;13.10;86.36;98916.50;4893827;29;20044;-89
2023/05/18 01:46:12;;;;;;;7.80;5.45;;;;;;;12.95;86.38;98900.56;4921171;29;20430;-89
2023/05/18 01:48:38;;;;;;;10.95;6.35;;;;;;;12.87;86.84;98899.31;4905134;29;20059;-89
2023/05/18 01:51:03;;;;;;;10.27;6.15;;;;;;;12.79;87.47;98902.69;4904520;29;20024;-89
2023/05/18 01:53:36;;;;;;;11.25;6.95;;;;;;;12.78;87.09;98902.97;4889652;29;20094;-90
2023/05/18 01:56:03;;;;;;;10.77;6.90;;;;;;;12.82;87.13;98907.50;4889707;29;20055;-90
2023/05/18 01:58:29;;;;;;;8.52;6.75;;;;;;;12.86;86.80;98907.72;4889148;29;20050;-89
2023/05/18 02:00:55;;;;;;;7.40;6.22;;;;;;;12.80;86.88;98895.38;4889338;29;20028;-90
2023/05/18 02:03:20;;;;;;;11.00;6.15;;;;;;;12.85;86.96;98923.13;4920305;29;20036;-89
2023/05/18 02:05:46;;;;;;;9.13;6.35;;;;;;;12.90;86.50;98922.25;4904841;29;20035;-89
2023/05/18 02:08:11;;;;;;;10.02;6.32;;;;;;;12.88;85.99;98919.03;4889023;29;20038;-88
2023/05/18 02:10:36;;;;;;;9.93;6.72;;;;;;;12.76;86.95;98932.19;4888790;29;20414;-89
2023/05/18 02:13:02;;;;;;;10.05;6.72;;;;;;;12.85;85.77;98925.84;4920908;29;20042;-89
2023/05/18 02:15:28;;;;;;;9.65;6.60;;;;;;;12.99;85.26;98928.59;4904604;29;20036;-90
2023/05/18 02:17:56;;;;;;;9.05;7.07;;;;;;;12.91;85.31;98924.66;4904378;29;20032;-90
2023/05/18 02:20:22;;;;;;;13.60;6.88;;;;;;;12.79;86.45;98923.53;4905703;29;20028;-90
2023/05/18 02:22:47;;;;;;;11.43;7.38;;;;;;;12.92;85.56;98928.16;4904928;29;20060;-89
2023/05/18 02:25:13;;;;;;;10.13;6.78;;;;;;;13.07;85.29;98956.84;4905145;29;20035;-89
2023/05/18 02:27:39;;;;;;;10.85;6.97;;;;;;;13.00;85.91;98949.09;4920460;29;20110;-89
2023/05/18 02:30:07;;;;;;;10.02;6.90;;;;;;;12.99;85.18;98928.59;4904990;29;20027;-89
2023/05/18 02:32:37;;;;;;;12.63;6.72;;;;;;;13.22;84.96;98956.59;4920792;29;20482;-90
2023/05/18 02:35:04;;;;;;;12.23;6.57;;;;;;;12.96;85.14;98921.06;4905753;29;20043;-90
2023/05/18 02:37:33;;;;;;;15.55;7.55;;;;;;;12.99;85.46;98935.88;4904406;29;20484;-89
2023/05/18 02:39:59;;;;;;;12.38;7.07;;;;;;;12.89;85.84;98943.06;4888439;29;20044;-90
2023/05/18 02:42:24;;;;;;;14.55;8.23;;;;;;;12.87;86.33;98941.75;4898574;29;20028;-90
2023/05/18 02:44:50;;;;;;;11.18;7.68;;;;;;;12.85;86.13;98942.06;4904595;29;20028;-90
2023/05/18 02:47:15;;;;;;;14.73;8.63;;;;;;;12.82;87.06;98947.22;4904771;29;20028;-89
2023/05/18 02:49:41;;;;;;;14.75;8.30;;;;;;;12.91;87.11;98964.41;4921909;29;20487;-89
2023/05/18 02:52:07;;;;;;;13.75;8.32;;;;;;;12.80;87.47;98954.81;4888751;29;20044;-89
2023/05/18 02:54:32;;;;;;;12.32;8.43;;;;;;;12.79;86.95;98948.63;4921376;29;20114;-89
2023/05/18 02:56:58;;;;;;;19.65;8.57;;;;;;;12.86;87.47;98965.25;4904890;29;20059;-90
2023/05/18 02:59:23;;;;;;;15.55;8.52;;;;;;;12.81;87.43;98957.25;4920606;29;20039;-90
2023/05/18 03:01:49;;;;;;;14.18;9.27;;;;;;;12.82;87.00;98949.94;4904341;29;20023;-89
2023/05/18 03:04:15;;;;;;;18.30;8.77;;;;;;;12.88;86.97;98959.56;4920567;29;20494;-89
2023/05/18 03:06:42;;;;;;;14.68;8.48;;;;;;;12.90;87.26;98981.69;4888954;29;20119;-90
2023/05/18 03:09:07;;;;;;;11.70;8.10;;;;;;;12.78;87.06;98962.41;4938182;29;20020;-89
2023/05/18 03:11:33;;;;;;;17.65;8.38;;;;;;;12.86;87.07;98973.34;4919751;29;20083;-89
2023/05/18 03:13:58;;;;;;;14.55;8.60;;;;;;;12.71;87.39;98960.88;4920487;29;20035;-90
2023/05/18 03:16:27;;;;;;;15.00;9.00;;;;;;;12.82;87.63;98988.56;4904777;29;20087;-89
2023/05/18 03:18:53;;;;;;;15.25;8.82;;;;;;;12.81;87.44;98996.97;4904803;29;20524;-90
2023/05/18 03:21:20;;;;;;;17.90;8.52;;;;;;;12.72;86.95;98972.50;4920420;29;20028;-90
2023/05/18 03:23:46;;;;;;;13.25;8.77;;;;;;;12.73;87.08;98972.19;4907006;29;20478;-90
2023/05/18 03:26:11;;;;;;;16.95;9.93;;;;;;;12.64;87.25;98979.38;4907897;29;20024;-90
2023/05/18 03:28:42;;;;;;;15.98;10.13;;;;;;;12.66;88.09;98985.28;4922998;29;20036;-88
2023/05/18 03:31:08;;;;;;;18.70;10.13;;;;;;;12.83;88.11;99009.09;4892669;29;20115;-92
2023/05/18 03:33:33;;;;;;;18.27;10.13;;;;;;;12.77;87.45;99004.06;4926077;29;20027;-90
2023/05/18 03:36:02;;;;;;;15.52;9.52;;;;;;;12.65;87.53;98997.16;4925150;29;20020;-90
2023/05/18 03:38:27;;;;;;;16.27;10.57;;;;;;;12.76;88.14;99008.63;4909661;29;20052;-90
2023/05/18 03:40:54;;;;;;;19.08;10.10;;;;;;;12.85;87.34;99012.31;4908087;29;20027;-89
2023/05/18 03:43:19;;;;;;;20.02;10.45;;;;;;;12.71;87.78;98996.00;4909449;29;20095;-90
2023/05/18 03:45:45;;;;;;;17.40;9.60;;;;;;;12.77;87.22;98999.44;4907758;29;20019;-90
2023/05/18 03:48:10;;;;;;;16.83;9.85;;;;;;;12.93;87.35;99018.94;4912800;29;20027;-91
2023/05/18 03:50:36;;;;;;;19.40;10.48;;;;;;;13.03;86.96;99029.63;4932088;29;20046;-89
2023/05/18 03:53:01;;;;;;;16.30;10.68;;;;;;;12.89;87.07;99007.13;4921377;29;20503;-89
2023/05/18 03:55:28;;;;;;;24.80;13.43;;;;;;;12.99;87.21;99027.78;4888170;29;20031;-90
2023/05/18 03:57:54;;;;;;;17.77;11.18;;;;;;;12.96;86.73;99021.06;4875947;29;20112;-90
2023/05/18 04:00:19;;;;;;;15.32;10.80;;;;;;;13.04;86.19;99025.00;4886100;29;20108;-90
2023/05/18 04:02:45;;;;;;;19.58;10.93;;;;;;;13.09;85.71;99030.31;4889513;29;20024;-91
2023/05/18 04:05:11;;;;;;;20.80;10.77;;;;;;;13.02;85.75;99028.00;4887857;29;20024;-89
2023/05/18 04:07:42;;;;;;;18.05;10.82;;;;;;;13.11;85.47;99025.44;4884976;29;20035;-89
2023/05/18 04:10:09;;;;;;;17.45;9.82;;;;;;;13.25;85.53;99055.22;4923306;29;20414;-96
2023/05/18 04:12:35;;;;;;;17.77;9.68;;;;;;;13.11;84.84;99042.47;4911439;29;20060;-96
2023/05/18 04:15:03;;;;;;;34.25;24.88;;;;;;;13.24;84.89;99040.91;4901099;29;20023;-96
2023/05/18 04:17:29;;;;;;;15.45;9.52;;;;;;;13.23;84.40;99042.00;4905241;29;20015;-96
2023/05/18 04:19:57;;;;;;;17.42;9.55;;;;;;;13.54;83.38;99072.09;4921506;29;20058;-96
2023/05/18 04:22:46;;;;;;;16.25;9.80;;;;;;;13.53;83.42;99067.00;4877960;29;20041;-96
2023/05/18 04:25:26;;;;;;;;;;;;;;;13.66;82.87;99073.56;4853226;29;20048;-96
2023/05/18 04:27:53;;;;;;;14.18;9.00;;;;;;;13.69;82.33;99062.13;4878530;29;20010;-95
2023/05/18 04:30:20;;;;;;;17.75;10.35;;;;;;;13.51;83.04;99051.06;4838633;29;20561;-95
2023/05/18 04:32:46;;;;;;;14.57;10.00;;;;;;;13.40;83.07;99038.78;4842637;29;20068;-93
2023/05/18 04:35:13;;;;;;;16.15;9.75;;;;;;;13.59;82.90;99048.78;4859694;29;20040;-96
2023/05/18 04:37:41;;;;;;;14.27;10.00;;;;;;;13.61;83.58;99049.28;4839772;29;20065;-94
2023/05/18 04:40:12;;;;;;;16.40;10.63;;;;;;;13.38;84.55;99051.00;4815857;29;20033;-93
2023/05/18 04:42:46;;;;;;;20.23;10.57;;;;;;;13.63;83.91;99066.00;4822349;29;20067;-96
2023/05/18 04:45:16;;;;;;;18.95;11.65;;;;;;;13.93;83.78;99084.44;4842640;29;20478;-96
2023/05/18 04:47:52;;;;;;;13.23;9.23;;;;;;;13.98;82.14;99093.56;4825286;29;20042;-95
2023/05/18 04:50:18;;;;;;;16.85;10.98;;;;;;;13.97;82.07;99076.53;4819316;29;20147;-94
2023/05/18 04:52:47;;;;;;;17.02;10.13;;;;;;;14.08;81.91;99083.34;4831503;29;20050;-94
2023/05/18 04:55:21;;;;;;;12.68;9.88;;;;;;;14.13;81.13;99080.56;4853689;29;20105;-95
2023/05/18 04:58:09;;;;;;;14.98;9.45;;;;;;;14.14;81.78;99078.66;4895944;29;20037;-95
2023/05/18 05:00:34;;;;;;;21.17;9.48;;;;;;;14.26;81.84;99091.72;4880044;29;20036;-96
2023/05/18 05:03:00;;;;;;;17.17;10.23;;;;;;;14.32;81.30;99112.19;4883798;29;20060;-94
2023/05/18 05:05:25;;;;;;;14.35;10.25;;;;;;;14.33;81.40;99097.53;4866805;29;20036;-95
2023/05/18 05:07:52;;;;;;;15.00;9.43;;;;;;;14.40;80.59;99097.13;4882009;29;20037;-96
2023/05/18 05:10:18;;;;;;;14.25;10.48;;;;;;;14.49;80.39;99089.91;4882604;29;20055;-96
2023/05/18 05:12:44;;;;;;;17.80;10.77;;;;;;;14.51;81.85;99117.53;4868702;29;20049;-94
2023/05/18 05:15:09;;;;;;;15.00;10.98;;;;;;;14.54;81.37;99114.19;4867711;29;20041;-94
2023/05/18 05:17:36;;;;;;;18.60;9.93;;;;;;;14.67;80.90;99112.59;4869265;29;20104;-93
2023/05/18 05:20:02;;;;;;;28.30;19.30;;;;;;;14.93;80.14;99112.91;4904469;29;20479;-95
2023/05/18 05:22:28;;;;;;;24.23;11.35;;;;;;;15.00;79.80;99107.06;4903985;29;20026;-93
2023/05/18 05:25:00;;;;;;;20.60;10.85;;;;;;;15.19;78.72;99115.03;4918272;29;20193;-96
2023/05/18 05:27:29;;;;;;;16.15;11.98;;;;;;;15.26;78.88;99110.03;4941427;29;20461;-95
2023/05/18 05:29:54;;;;;;;16.60;10.20;;;;;;;15.17;77.73;99120.81;4907966;29;20123;-95
2023/05/18 05:32:20;;;;;;;16.63;10.00;;;;;;;15.20;77.96;99105.81;4906631;29;20036;-94
2023/05/18 05:34:46;;;;;;;14.15;9.23;;;;;;;15.44;77.04;99124.50;4907537;29;20552;-96
2023/05/18 05:37:12;;;;;;;11.23;6.60;;;;;;;15.55;72.21;99115.03;4908051;29;20102;-96
2023/05/18 05:39:38;;;;;;;12.10;5.97;;;;;;;15.45;72.15;99102.50;4890647;29;20467;-96
2023/05/18 05:42:05;;;;;;;9.13;7.05;;;;;;;15.54;73.41;99108.81;4891945;29;20048;-96
2023/05/18 05:44:31;;;;;;;8.57;6.60;;;;;;;15.71;73.15;99123.63;4892492;29;20029;-94
2023/05/18 05:46:58;;;;;;;7.90;4.82;;;;;;;15.76;70.73;99121.59;4909437;29;20027;-96
2023/05/18 05:49:25;;;;;;;16.15;8.05;;;;;;;15.73;72.74;99122.25;4924127;29;20059;-96
2023/05/18 05:51:51;;;;;;;13.05;8.93;;;;;;;15.71;73.38;99131.78;4892776;29;20063;-94
2023/05/18 05:54:17;;;;;;;9.98;6.88;;;;;;;15.51;71.14;99130.34;4906534;29;20086;-93
2023/05/18 05:56:42;;;;;;;11.93;7.13;;;;;;;15.76;71.39;99146.03;4921616;29;20032;-92
2023/05/18 05:59:08;;;;;;;16.23;8.02;;;;;;;15.59;72.09;99124.19;4906653;29;20032;-93
2023/05/18 06:01:33;;;;;;;10.27;7.20;;;;;;;15.72;70.82;99117.09;4939339;29;20027;-95
2023/05/18 06:04:02;;;;;;;12.32;7.88;;;;;;;15.64;72.04;99129.47;4938665;29;20028;-93
2023/05/18 06:06:28;;;;;;;11.27;6.72;;;;;;;15.77;71.25;99141.41;4926566;29;20028;-94
2023/05/18 06:08:54;;;;;;;9.23;5.63;;;;;;;15.70;69.36;99133.66;4914382;29;20035;-96
2023/05/18 06:11:19;;;;;;;11.80;6.20;;;;;;;15.71;69.85;99129.84;4947192;29;20036;-95
2023/05/18 06:13:45;;;;;;;9.88;5.78;;;;;;;15.44;70.33;99124.50;4928256;29;20035;-96
2023/05/18 06:16:11;;;;;;;9.27;5.35;;;;;;;15.69;70.21;99144.84;4929198;29;20107;-95
2023/05/18 06:18:36;;;;;;;8.93;5.07;;;;;;;15.82;69.54;99143.22;4950055;29;20111;-96
2023/05/18 06:21:03;;;;;;;10.95;5.40;;;;;;;15.75;70.46;99132.78;5141496;23;20090;-96
2023/05/18 06:23:31;;;;;;;9.63;5.40;;;;;;;15.87;68.64;99134.94;4937095;29;20086;-96
2023/05/18 06:26:00;;;;;;;9.48;5.22;;;;;;;15.90;66.45;99128.91;4951013;29;20115;-95
2023/05/18 06:28:28;;;;;;;8.63;4.55;;;;;;;16.07;66.94;99160.78;5038738;23;20091;-95
2023/05/18 06:30:54;;;;;;;8.93;4.60;;;;;;;15.87;66.58;99152.00;4921959;29;20095;-93
2023/05/18 06:33:22;;;;;;;9.45;4.55;;;;;;;15.88;65.88;99150.91;4923145;29;20138;-94
2023/05/18 06:35:47;;;;;;;8.60;4.50;;;;;;;16.09;66.04;99148.50;4929190;29;20032;-95
2023/05/18 06:38:16;;;;;;;6.80;4.82;;;;;;;16.22;65.65;99163.09;4931315;29;20031;-95
2023/05/18 06:40:42;;;;;;;9.73;5.05;;;;;;;16.14;67.19;99136.69;4914874;29;20099;-95
2023/05/18 06:43:08;;;;;;;10.82;5.68;;;;;;;16.14;67.42;99136.69;4933229;29;20023;-94
2023/05/18 06:45:33;;;;;;;13.43;5.15;;;;;;;16.12;65.24;99145.19;4913095;29;20157;-96
2023/05/18 06:48:12;;;;;;;13.18;5.28;;;;;;;16.09;65.44;99143.06;4934945;29;20019;-96
2023/05/18 06:50:48;;;;;;;9.73;5.35;;;;;;;16.25;66.22;99173.38;4949372;29;20043;-96
2023/05/18 06:53:15;;;;;;;8.13;4.50;;;;;;;15.88;65.56;99152.84;4966180;29;20031;-95
2023/05/18 06:55:41;;;;;;;9.57;4.10;;;;;;;15.88;67.60;99166.41;4912165;29;20042;-95
2023/05/18 06:58:07;;;;;;;7.95;4.57;;;;;;;16.07;67.18;99177.09;4928657;29;20038;-92
2023/05/18 07:00:32;;;;;;;10.40;5.05;;;;;;;15.98;66.68;99170.78;4933159;29;20027;-96
2023/05/18 07:03:10;;;;;;;9.75;4.22;;;;;;;16.01;66.95;99187.25;4949876;29;20047;-96
2023/05/18 07:05:36;;;;;;;9.02;5.30;;;;;;;15.75;67.36;99195.22;4888045;29;20046;-94
2023/05/18 07:08:03;;;;;;;7.13;4.90;;;;;;;15.78;68.62;99207.38;4912849;29;20486;-96
2023/05/18 07:10:31;;;;;;;13.43;7.25;;;;;;;15.75;68.76;99187.09;4917441;29;20035;-95
2023/05/18 07:12:57;;;;;;;8.10;4.90;;;;;;;15.76;67.61;99203.03;4913203;29;20482;-95
2023/05/18 07:15:24;;;;;;;9.75;4.90;;;;;;;15.74;68.93;99210.69;4928647;29;20118;-95
2023/05/18 07:17:50;;;;;;;7.10;4.78;;;;;;;15.80;68.68;99232.31;4913567;29;20035;-94
2023/05/18 07:20:16;;;;;;;8.07;4.70;;;;;;;15.87;68.08;99224.53;4928563;29;20066;-95
2023/05/18 07:22:41;;;;;;;6.55;4.10;;;;;;;16.08;68.00;99238.44;4911275;29;20721;-90
2023/05/18 07:25:07;;;;;;;12.23;5.05;;;;;;;16.06;68.55;99225.19;4932149;29;20027;-89
2023/05/18 07:27:33;;;;;;;6.68;4.40;;;;;;;16.15;67.67;99241.53;4908750;29;20031;-91
2023/05/18 07:29:58;;;;;;;6.82;4.45;;;;;;;16.15;67.75;99244.25;4909578;29;20076;-94
2023/05/18 07:32:24;;;;;;;7.70;4.93;;;;;;;16.13;68.13;99228.25;4913334;29;20122;-95
2023/05/18 07:34:49;;;;;;;7.97;4.47;;;;;;;16.31;68.02;99245.47;4913528;29;20504;-93
2023/05/18 07:37:15;;;;;;;8.20;5.35;;;;;;;16.16;68.86;99224.09;4927592;29;20027;-92
2023/05/18 07:39:42;;;;;;;7.80;5.22;;;;;;;16.32;68.67;99243.56;4927941;29;20449;-93
2023/05/18 07:42:07;;;;;;;10.63;4.72;;;;;;;16.36;67.95;99256.22;4930011;29;20032;-95
2023/05/18 07:44:33;;;;;;;8.07;4.57;;;;;;;16.19;66.92;99241.72;4929269;29;20034;-95
2023/05/18 07:47:00;;;;;;;6.00;3.97;;;;;;;16.27;65.48;99239.06;4932508;29;20036;-94
2023/05/18 07:49:27;;;;;;;9.98;5.00;;;;;;;16.29;68.20;99241.44;4918656;29;20042;-95
2023/05/18 07:51:53;;;;;;;8.75;6.25;;;;;;;16.37;67.81;99259.72;4928477;29;20027;-95
2023/05/18 07:54:21;;;;;;;6.88;4.50;;;;;;;16.36;68.11;99272.53;4926825;29;20042;-96
2023/05/18 07:56:47;;;;;;;7.22;4.15;;;;;;;16.19;67.14;99258.03;4932649;29;20047;-96
2023/05/18 07:59:13;;;;;;;7.45;4.18;;;;;;;15.86;68.71;99253.59;4913447;29;20031;-94
2023/05/18 08:01:42;;;;;;;9.30;4.18;;;;;;;16.05;66.66;99249.91;4929318;29;20055;-95
2023/05/18 08:04:07;;;;;;;7.57;3.58;;;;;;;16.12;66.91;99250.28;4914805;29;20122;-94
2023/05/18 08:06:33;;;;;;;6.22;3.50;;;;;;;16.12;65.67;99247.56;4912904;29;20027;-94
2023/05/18 08:09:00;;;;;;;5.22;4.10;;;;;;;16.31;66.14;99259.06;4926476;29;20031;-95
2023/05/18 08:11:25;;;;;;;11.98;7.38;;;;;;;16.16;65.44;99243.94;4915034;29;20070;-93
2023/05/18 08:16:26;;;;;;;7.18;3.72;;;;;;;16.27;66.83;99246.38;4971568;23;20066;-94
2023/05/18 08:18:52;;;;;;;6.85;3.42;;;;;;;16.17;66.55;99240.09;4900009;29;20039;-96
2023/05/18 08:21:23;;;;;;;6.25;3.80;;;;;;;16.23;66.41;99248.94;4916129;29;20028;-95
2023/05/18 08:23:52;;;;;;;7.10;3.92;;;;;;;16.24;66.90;99239.66;4913548;29;20035;-95
2023/05/18 08:26:17;;;;;;;5.93;3.35;;;;;;;16.10;66.93;99238.94;4898968;29;20031;-95
2023/05/18 08:28:44;;;;;;;6.15;3.35;;;;;;;16.16;65.83;99227.66;4896428;29;20095;-93
2023/05/18 08:31:11;;;;;;;5.85;3.40;;;;;;;16.27;65.69;99249.94;4911546;29;20023;-95
2023/05/18 08:33:42;;;;;;;10.52;6.00;;;;;;;16.21;67.22;99259.31;4873995;29;20108;-95
2023/05/18 08:36:08;;;;;;;5.55;3.88;;;;;;;16.22;68.97;99288.06;4856390;29;20117;-93
2023/05/18 08:38:34;;;;;;;8.65;3.28;;;;;;;16.18;68.74;99284.38;4864502;29;20084;-92
2023/05/18 08:41:30;;;;;;;8.52;4.88;;;;;;;16.10;69.26;99290.53;4848961;29;20100;-92
2023/05/18 08:44:13;;;;;;;11.13;7.50;;;;;;;16.06;71.67;99273.25;4865458;29;20151;-90
2023/05/18 08:46:39;;;;;;;10.13;4.28;;;;;;;15.93;73.45;99272.97;4865672;29;20031;-91
2023/05/18 08:49:06;;;;;;;6.82;3.90;;;;;;;15.77;71.20;99288.00;4850684;29;20093;-95
2023/05/18 08:51:35;;;;;;;12.35;4.57;;;;;;;15.82;71.27;99289.81;4852812;29;20119;-94
2023/05/18 08:54:05;;;;;;;19.30;6.13;;;;;;;15.94;72.23;99301.75;4841654;29;20117;-92
2023/05/18 08:56:32;;;;;;;26.10;16.60;;;;;;;16.03;71.15;99288.25;4850456;29;20104;-95
2023/05/18 08:58:57;;;;;;;12.18;5.35;;;;;;;16.09;70.65;99295.16;4867155;29;20037;-93
2023/05/18 09:01:29;;;;;;;6.65;3.63;;;;;;;16.27;68.60;99277.09;4851246;29;20560;-94
2023/05/18 09:04:01;;;;;;;7.40;4.00;;;;;;;16.44;67.54;99281.06;4878518;29;20040;-94
2023/05/18 09:06:27;;;;;;;;;;;;;;;16.84;67.64;99308.34;4895861;29;20059;-93
2023/05/18 09:08:53;;;;;;;7.13;3.15;;;;;;;16.98;68.27;99297.38;4901780;29;20392;-92
2023/05/18 09:11:18;;;;;;;8.25;3.95;;;;;;;17.07;68.30;99298.22;4880251;29;20133;-95
2023/05/18 09:13:44;;;;;;;4.65;3.50;;;;;;;17.28;66.25;99299.25;4892121;29;20027;-91
2023/05/18 09:16:10;;;;;;;7.05;4.05;;;;;;;17.48;65.95;99295.16;4903544;29;20538;-91
2023/05/18 09:18:38;;;;;;;7.47;4.10;;;;;;;17.33;66.79;99284.72;4896688;29;20024;-92
2023/05/18 09:21:03;;;;;;;7.68;4.45;;;;;;;16.84;68.29;99290.09;4903969;29;20087;-91
2023/05/18 09:23:41;;;;;;;8.35;4.70;;;;;;;16.93;70.25;99282.81;4904797;29;20032;-92
2023/05/18 09:26:10;;;;;;;6.30;3.25;;;;;;;17.37;67.28;99311.00;4889976;29;20023;-88
2023/05/18 09:28:39;;;;;;;5.43;3.15;;;;;;;17.56;69.31;99304.47;4919773;29;20036;-90
2023/05/18 09:31:07;;;;;;;7.15;4.10;;;;;;;17.67;65.63;99284.00;4906051;29;20039;-92
2023/05/18 09:33:35;;;;;;;5.45;3.20;;;;;;;17.62;63.89;99296.94;4919888;29;20487;-91
2023/05/18 09:36:00;;;;;;;7.50;3.83;;;;;;;17.51;66.25;99305.41;4903308;29;20035;-90
2023/05/18 09:38:26;;;;;;;5.95;4.85;;;;;;;17.26;67.98;99297.97;4919185;29;20028;-90
2023/05/18 09:40:52;;;;;;;5.57;3.60;;;;;;;17.32;68.02;99310.31;4900087;29;20023;-91
2023/05/18 09:43:23;;;;;;;7.97;4.05;;;;;;;17.12;69.59;99304.34;4941260;29;20483;-91
2023/05/18 09:46:11;;;;;;;9.27;3.78;;;;;;;17.17;67.05;99304.19;4925472;29;20032;-96
2023/05/18 09:51:33;;;;;;;6.68;4.25;;;;;;;17.02;70.09;99325.56;4964729;28;20057;-96
2023/05/18 09:54:26;;;;;;;7.35;3.63;;;;;;;17.01;68.34;99346.50;4951885;29;20116;-96
2023/05/18 09:57:04;;;;;;;4.82;3.63;;;;;;;16.93;70.26;99331.78;4933934;29;20088;-96
2023/05/18 09:59:35;;;;;;;7.82;2.90;;;;;;;17.11;68.18;99327.19;4950632;29;20082;-96
2023/05/18 10:02:04;;;;;;;5.53;2.95;;;;;;;17.25;67.12;99342.63;4939780;29;20394;-95
2023/05/18 10:04:41;;;;;;;5.32;3.08;;;;;;;17.15;68.89;99300.97;4951281;28;20043;-96
2023/05/18 10:07:14;;;;;;;3.95;2.92;;;;;;;17.22;64.85;99313.31;4947842;29;20077;-95
2023/05/18 10:09:41;;;;;;;5.70;3.05;;;;;;;17.22;64.82;99321.47;4897552;29;20231;-95
2023/05/18 10:12:15;;;;;;;13.35;8.95;;;;;;;17.35;65.66;99323.31;4911982;29;20106;-95
2023/05/18 10:14:44;;;;;;;5.50;2.88;;;;;;;17.02;65.92;99312.75;4912461;29;20047;-96
2023/05/18 10:17:16;;;;;;;6.65;3.17;;;;;;;17.24;68.78;99328.22;4912342;29;20042;-96
2023/05/18 10:19:42;;;;;;;4.97;2.95;;;;;;;17.14;66.77;99333.94;4909567;29;20055;-96
2023/05/18 10:22:08;;;;;;;4.55;2.10;;;;;;;16.96;64.40;99352.88;4908437;29;20030;-96
2023/05/18 10:24:37;;;;;;;4.65;2.13;;;;;;;16.82;65.37;99324.16;4910936;29;20027;-96
2023/05/18 10:27:10;;;;;;;4.72;2.50;;;;;;;16.93;64.06;99341.81;4914090;29;20062;-96
2023/05/18 10:29:53;;;;;;;4.38;2.15;;;;;;;16.92;65.18;99341.03;4920103;29;20508;-96
2023/05/18 10:32:27;;;;;;;3.65;2.67;;;;;;;16.75;66.84;99352.56;4928471;29;20035;-96
2023/05/18 10:35:06;;;;;;;3.90;2.90;;;;;;;16.56;70.59;99351.97;4920047;29;20028;-96
2023/05/18 10:37:57;;;;;;;3.72;2.08;;;;;;;16.34;67.74;99345.38;4911071;29;20068;-96
2023/05/18 10:40:42;;;;;;;5.32;2.30;;;;;;;16.50;68.24;99367.59;4931948;29;20036;-94
2023/05/18 10:43:14;;;;;;;3.30;2.33;;;;;;;16.55;67.78;99334.03;5007544;23;20139;-95
2023/05/18 10:45:40;;;;;;;5.40;2.70;;;;;;;16.71;68.48;99326.31;4911305;29;20038;-94
2023/05/18 10:48:07;;;;;;;3.40;2.20;;;;;;;16.67;66.13;99320.69;4895727;29;20032;-96
2023/05/18 10:50:35;;;;;;;2.83;2.33;;;;;;;16.85;66.40;99345.28;4906103;29;20125;-93
2023/05/18 10:53:01;;;;;;;5.82;4.07;;;;;;;17.11;68.70;99343.53;4892806;29;20024;-95
2023/05/18 10:55:30;;;;;;;3.72;2.67;;;;;;;17.31;66.96;99355.00;4913631;29;20036;-95
2023/05/18 10:58:12;;;;;;;6.75;3.20;;;;;;;17.19;66.39;99338.44;4895926;29;20035;-94
2023/05/18 11:00:41;;;;;;;6.22;2.83;;;;;;;17.11;68.56;99348.97;4908531;29;20082;-92
2023/05/18 11:03:08;;;;;;;6.20;3.40;;;;;;;17.05;63.96;99328.44;4892881;29;20035;-93
2023/05/18 11:05:51;;;;;;;;;;;;;;;;;;;;;
2023/05/18 11:08:26;;;;;;;6.55;3.67;;;;;;;17.68;65.52;99344.69;4892204;29;20104;-96
2023/05/18 11:11:09;;;;;;;7.28;3.40;;;;;;;17.54;67.71;99334.72;4902950;29;20127;-96
2023/05/18 11:13:42;;;;;;;4.55;3.20;;;;;;;17.88;65.74;99352.31;4889250;29;20036;-92
2023/05/18 11:16:10;;;;;;;5.32;2.90;;;;;;;17.90;64.65;99341.09;4887332;29;20043;-91
2023/05/18 11:18:40;;;;;;;4.78;2.80;;;;;;;18.02;64.58;99335.03;4885366;29;20046;-91
2023/05/18 11:21:27;;;;;;;4.30;2.60;;;;;;;18.08;62.67;99359.06;4899942;29;20052;-90
2023/05/18 11:24:14;;;;;;;6.85;3.70;;;;;;;17.95;63.07;99355.38;4900864;29;20039;-92
2023/05/18 11:26:40;;;;;;;6.20;2.80;;;;;;;17.80;62.92;99328.53;4899876;29;20042;-88
2023/05/18 11:29:22;;;;;;;5.28;2.90;;;;;;;17.89;63.27;99339.50;4900730;29;20044;-94
2023/05/18 11:31:52;;;;;;;4.13;2.88;;;;;;;17.86;63.18;99331.97;4869128;29;20521;-90
2023/05/18 11:34:46;;;;;;;3.22;2.63;;;;;;;18.07;64.93;99354.72;4871633;29;20102;-94
2023/05/18 11:37:16;;;;;;;6.53;3.70;;;;;;;17.93;66.68;99357.63;4905628;29;20087;-93
2023/05/18 11:39:51;;;;;;;5.18;2.90;;;;;;;17.73;63.52;99339.91;4890885;29;20031;-94
2023/05/18 11:42:35;;;;;;;6.30;3.90;;;;;;;17.75;62.87;99348.56;4892015;29;20032;-94